Terminal Aerodrome Forecast
Issued by NWS Pocatello, ID

Home | Current Version | Previous Version | Text Only | Print | Product List | Glossary On
Versions: 1 2 3 4 5 6 7 8 9 10 11 12 13 14 15 16 17 18 19
305
FTUS45 KPIH 281816 AAA
TAFPIH
TAF AMD
KPIH 281816Z 2818/2918 03012KT P6SM VCTS FEW080CB BKN120
     FM290100 VRB06KT P6SM SCT120
     FM291200 04009KT P6SM SCT060 BKN080=

USA.gov is the U.S. government's official web portal to all federal, state and local government web resources and services.